Time;durP1;ratioP1;P1;durP2;ratioP2;P2;SDS_P1;SDS_P2;PMS_P1;PMS_P2;Temp;Humidity;BMP_temperature;BMP_pressure;BME280_temperature;BME280_humidity;BME280_pressure;Samples;Min_cycle;Max_cycle;Signal;HPM_P1;HPM_P2
2021/05/24 00:00:14;;;;;;;3.05;1.65;;;10.10;99.90;;;;;;4943781;28;20118;-64
2021/05/24 00:02:42;;;;;;;3.50;1.15;;;10.10;99.90;;;;;;4938945;28;20055;-63
2021/05/24 00:05:13;;;;;;;2.97;1.38;;;10.10;99.90;;;;;;4942714;28;20043;-64
2021/05/24 00:07:40;;;;;;;2.72;1.05;;;10.10;99.90;;;;;;4936201;28;20046;-63
2021/05/24 00:10:10;;;;;;;3.03;1.92;;;10.10;99.90;;;;;;4939318;28;20114;-63
2021/05/24 00:12:37;;;;;;;3.60;1.57;;;10.10;99.90;;;;;;4939578;28;20158;-63
2021/05/24 00:15:06;;;;;;;1.45;1.10;;;10.10;99.90;;;;;;4941725;28;20193;-63
2021/05/24 00:17:33;;;;;;;1.60;1.08;;;10.10;99.90;;;;;;4937948;28;20059;-64
2021/05/24 00:20:00;;;;;;;6.38;1.90;;;10.10;99.90;;;;;;4942351;28;20468;-63
2021/05/24 00:22:27;;;;;;;2.92;0.77;;;10.10;99.90;;;;;;4938060;28;20055;-63
2021/05/24 00:24:54;;;;;;;2.28;1.00;;;10.10;99.90;;;;;;4941752;28;20723;-63
2021/05/24 00:27:21;;;;;;;2.83;1.20;;;10.10;99.90;;;;;;4938193;28;21182;-65
2021/05/24 00:29:48;;;;;;;1.63;0.80;;;10.00;99.90;;;;;;4937077;28;20047;-64
2021/05/24 00:32:15;;;;;;;7.32;1.55;;;10.00;99.90;;;;;;4939175;28;20465;-63
2021/05/24 00:34:42;;;;;;;2.97;1.05;;;10.00;99.90;;;;;;4941011;28;20150;-64
2021/05/24 00:37:09;;;;;;;3.00;1.08;;;9.90;99.90;;;;;;4939139;28;20055;-64
2021/05/24 00:39:36;;;;;;;4.53;1.65;;;9.90;99.90;;;;;;4938326;28;20055;-63
2021/05/24 00:42:03;;;;;;;2.72;1.10;;;9.90;99.90;;;;;;4955906;28;20099;-63
2021/05/24 00:44:31;;;;;;;3.22;1.20;;;9.80;99.90;;;;;;4931888;28;20125;-63
2021/05/24 00:46:58;;;;;;;2.05;1.27;;;9.80;99.90;;;;;;4938941;28;20047;-64
2021/05/24 00:49:29;;;;;;;4.50;1.60;;;9.80;99.90;;;;;;4936830;28;20119;-63
2021/05/24 00:51:57;;;;;;;2.70;1.38;;;9.70;99.90;;;;;;4939507;28;20050;-63
2021/05/24 00:54:25;;;;;;;3.00;0.90;;;9.70;99.90;;;;;;4939189;28;20043;-64
2021/05/24 00:56:53;;;;;;;2.50;1.23;;;9.60;99.90;;;;;;4938797;28;20063;-63
2021/05/24 00:59:21;;;;;;;1.52;1.27;;;9.60;99.90;;;;;;4930376;28;20111;-63
2021/05/24 01:01:49;;;;;;;4.15;1.88;;;9.60;99.90;;;;;;4941444;28;20177;-64
2021/05/24 01:04:18;;;;;;;1.98;1.00;;;9.60;99.90;;;;;;4934644;28;20043;-63
2021/05/24 01:06:47;;;;;;;3.78;1.40;;;9.60;99.90;;;;;;4940466;28;20410;-63
2021/05/24 01:09:16;;;;;;;2.60;1.67;;;9.60;99.90;;;;;;4942823;28;20055;-63
2021/05/24 01:11:43;;;;;;;4.63;1.40;;;9.60;99.90;;;;;;4937718;28;20552;-63
2021/05/24 01:14:10;;;;;;;2.03;1.52;;;9.70;99.90;;;;;;4937403;28;20043;-62
2021/05/24 01:16:37;;;;;;;1.30;0.90;;;9.70;99.90;;;;;;4942913;28;20051;-63
2021/05/24 01:19:04;;;;;;;1.58;0.93;;;9.70;99.90;;;;;;4944251;28;20051;-63
2021/05/24 01:21:31;;;;;;;1.55;1.00;;;9.70;99.90;;;;;;4941305;28;20325;-63
2021/05/24 01:23:58;;;;;;;2.03;1.20;;;9.80;99.90;;;;;;4947153;28;20141;-63
2021/05/24 01:26:25;;;;;;;10.73;1.65;;;9.80;99.90;;;;;;4942008;28;20118;-63
2021/05/24 01:28:54;;;;;;;4.68;1.27;;;9.80;99.90;;;;;;4948173;28;20054;-63
2021/05/24 01:31:22;;;;;;;2.45;0.80;;;9.80;99.90;;;;;;4946044;28;20047;-63
2021/05/24 01:33:52;;;;;;;0.90;0.90;;;9.80;99.90;;;;;;4945519;28;20051;-64
2021/05/24 01:36:19;;;;;;;3.70;1.40;;;9.90;99.90;;;;;;4944240;28;20407;-63
2021/05/24 01:38:48;;;;;;;0.77;0.77;;;9.90;99.90;;;;;;4946997;28;20038;-63
2021/05/24 01:41:15;;;;;;;3.13;1.05;;;9.90;99.90;;;;;;4949750;28;20047;-64
2021/05/24 01:43:45;;;;;;;1.23;1.13;;;9.90;99.90;;;;;;4943611;28;20047;-64
2021/05/24 01:46:12;;;;;;;6.65;2.78;;;9.90;99.90;;;;;;4945746;28;20352;-63
2021/05/24 01:48:42;;;;;;;1.58;1.10;;;9.90;99.90;;;;;;4945500;28;20079;-63
2021/05/24 01:51:09;;;;;;;1.33;0.90;;;9.90;99.90;;;;;;4941908;28;20110;-63
2021/05/24 01:53:37;;;;;;;1.48;1.30;;;9.90;99.90;;;;;;4942191;28;20051;-62
2021/05/24 01:56:05;;;;;;;1.45;1.35;;;9.90;99.90;;;;;;4944525;28;20453;-63
2021/05/24 01:58:33;;;;;;;0.82;0.82;;;9.90;99.90;;;;;;4942131;28;20048;-63
2021/05/24 02:01:05;;;;;;;1.27;1.17;;;9.90;99.90;;;;;;4951734;28;20047;-63
2021/05/24 02:03:32;;;;;;;4.35;1.40;;;9.90;99.90;;;;;;4943902;28;20058;-63
2021/05/24 02:06:02;;;;;;;1.52;0.77;;;9.90;99.90;;;;;;4942911;28;20092;-63
2021/05/24 02:08:29;;;;;;;1.17;0.90;;;9.90;99.90;;;;;;4944593;28;20149;-63
2021/05/24 02:10:57;;;;;;;2.42;1.13;;;9.90;99.90;;;;;;4944722;28;20043;-63
2021/05/24 02:13:28;;;;;;;2.17;1.45;;;9.80;99.90;;;;;;4943144;28;20044;-63
2021/05/24 02:15:55;;;;;;;1.48;1.38;;;9.80;99.90;;;;;;4939933;28;20482;-63
2021/05/24 02:18:22;;;;;;;2.45;1.10;;;9.70;99.90;;;;;;4926178;29;20055;-63
2021/05/24 02:20:50;;;;;;;2.20;1.13;;;9.70;99.90;;;;;;4943025;28;20122;-63
2021/05/24 02:23:17;;;;;;;2.20;1.05;;;9.60;99.90;;;;;;4955867;28;20061;-63
2021/05/24 02:25:44;;;;;;;1.02;0.93;;;9.60;99.90;;;;;;4941112;28;20054;-63
2021/05/24 02:28:13;;;;;;;1.05;0.95;;;9.60;99.90;;;;;;4943577;28;20070;-63
2021/05/24 02:30:42;;;;;;;4.10;1.50;;;9.60;99.90;;;;;;4943725;28;20051;-63
2021/05/24 02:33:09;;;;;;;2.30;1.35;;;9.60;99.90;;;;;;4944400;28;20066;-63
2021/05/24 02:35:36;;;;;;;1.25;1.00;;;9.70;99.90;;;;;;4935147;28;20078;-63
2021/05/24 02:38:04;;;;;;;1.48;1.27;;;9.60;99.90;;;;;;4941981;28;20509;-63
2021/05/24 02:40:32;;;;;;;2.67;1.10;;;9.60;99.90;;;;;;4941909;28;20536;-63
2021/05/24 02:42:59;;;;;;;5.68;1.20;;;9.60;99.90;;;;;;4942865;28;20051;-63
2021/05/24 02:45:26;;;;;;;1.38;1.27;;;9.60;99.90;;;;;;4938090;28;20035;-63
2021/05/24 02:47:53;;;;;;;3.53;1.13;;;9.70;99.90;;;;;;4944656;28;20047;-63
2021/05/24 02:50:23;;;;;;;2.70;1.58;;;9.60;99.90;;;;;;4940267;28;20074;-63
2021/05/24 02:52:51;;;;;;;1.88;1.00;;;9.70;99.90;;;;;;4946872;28;20067;-63
2021/05/24 02:55:21;;;;;;;3.20;1.25;;;9.70;99.90;;;;;;4938983;28;20160;-63
2021/05/24 02:57:48;;;;;;;1.60;1.17;;;9.70;99.90;;;;;;4944368;28;20055;-63
2021/05/24 03:00:15;;;;;;;1.55;1.23;;;9.70;99.90;;;;;;4941947;28;20051;-63
2021/05/24 03:02:47;;;;;;;6.80;2.55;;;9.70;99.90;;;;;;4943669;28;20043;-63
2021/05/24 03:05:16;;;;;;;4.53;1.63;;;9.70;99.90;;;;;;4944471;28;20071;-63
2021/05/24 03:07:43;;;;;;;2.47;2.03;;;9.70;99.90;;;;;;4946298;28;20461;-63
2021/05/24 03:10:12;;;;;;;4.22;1.65;;;9.70;99.90;;;;;;4939174;28;20051;-63
2021/05/24 03:12:39;;;;;;;1.58;1.30;;;9.70;99.90;;;;;;4932754;28;20047;-63
2021/05/24 03:15:07;;;;;;;2.35;1.73;;;9.80;99.90;;;;;;4936288;28;20087;-63
2021/05/24 03:17:34;;;;;;;4.07;1.65;;;9.80;99.90;;;;;;4938827;28;20051;-63
2021/05/24 03:20:06;;;;;;;4.53;1.23;;;9.70;99.90;;;;;;4939997;28;20181;-63
2021/05/24 03:22:33;;;;;;;4.38;1.60;;;9.70;99.90;;;;;;4942573;28;20062;-63
2021/05/24 03:25:00;;;;;;;1.35;1.05;;;9.70;99.90;;;;;;4940700;28;20055;-63
2021/05/24 03:27:28;;;;;;;4.07;1.30;;;9.80;99.90;;;;;;4935167;28;20465;-63
2021/05/24 03:29:56;;;;;;;6.15;1.50;;;9.70;99.90;;;;;;4942349;28;20044;-63
2021/05/24 03:32:26;;;;;;;1.50;1.27;;;9.70;99.90;;;;;;4943891;28;20046;-63
2021/05/24 03:34:53;;;;;;;6.65;1.75;;;9.70;99.90;;;;;;4946258;28;20464;-64
2021/05/24 03:37:20;;;;;;;2.72;1.25;;;9.80;99.90;;;;;;4936878;28;20062;-64
2021/05/24 03:39:47;;;;;;;1.27;1.17;;;9.80;99.90;;;;;;4947817;28;20055;-63
2021/05/24 03:42:13;;;;;;;2.13;1.17;;;9.80;99.90;;;;;;4938906;28;20050;-64
2021/05/24 03:44:43;;;;;;;1.67;1.17;;;9.80;99.90;;;;;;4947939;28;20125;-63
2021/05/24 03:47:12;;;;;;;2.05;1.30;;;9.80;99.90;;;;;;4943940;28;20122;-63
2021/05/24 03:49:40;;;;;;;5.68;1.60;;;9.80;99.90;;;;;;4941553;28;20051;-63
2021/05/24 03:52:07;;;;;;;3.80;1.25;;;9.80;99.90;;;;;;4941368;28;20509;-63
2021/05/24 03:54:34;;;;;;;7.90;2.50;;;9.80;99.90;;;;;;4937803;28;20059;-64
2021/05/24 03:57:01;;;;;;;3.03;1.77;;;9.80;99.90;;;;;;4943713;28;20114;-63
2021/05/24 03:59:28;;;;;;;2.13;1.33;;;9.90;99.90;;;;;;4938026;28;20096;-63
2021/05/24 04:01:55;;;;;;;4.38;1.98;;;9.90;99.90;;;;;;4943652;28;20486;-63
2021/05/24 04:04:22;;;;;;;1.80;1.70;;;9.90;99.90;;;;;;4941568;28;20051;-63
2021/05/24 04:06:53;;;;;;;3.78;1.40;;;9.90;99.90;;;;;;4934730;28;20415;-63
2021/05/24 04:09:26;;;;;;;1.75;1.65;;;9.90;99.90;;;;;;5074213;27;20402;-62
2021/05/24 04:11:53;;;;;;;4.47;1.80;;;9.90;99.90;;;;;;5073473;28;20496;-63
2021/05/24 04:14:20;;;;;;;5.40;2.60;;;9.90;99.90;;;;;;5073764;28;20056;-62
2021/05/24 04:16:47;;;;;;;4.55;1.40;;;9.90;99.90;;;;;;5074300;28;20036;-62
2021/05/24 04:19:17;;;;;;;5.07;1.23;;;9.90;99.90;;;;;;5071810;27;20629;-62
2021/05/24 04:21:44;;;;;;;4.70;2.10;;;9.90;99.90;;;;;;5072575;28;20832;-63
2021/05/24 04:24:13;;;;;;;3.45;1.88;;;9.90;99.90;;;;;;5070177;28;20129;-62
2021/05/24 04:26:40;;;;;;;4.63;1.67;;;9.90;99.90;;;;;;5072204;28;20040;-62
2021/05/24 04:29:07;;;;;;;2.90;1.77;;;9.80;99.90;;;;;;5073767;27;20044;-65
2021/05/24 04:31:35;;;;;;;3.08;1.73;;;9.80;99.90;;;;;;5073726;27;20428;-64
2021/05/24 04:34:03;;;;;;;4.75;1.77;;;9.80;99.90;;;;;;5073233;28;20078;-64
2021/05/24 04:36:30;;;;;;;6.20;2.38;;;9.70;99.90;;;;;;5071360;28;20036;-64
2021/05/24 04:38:57;;;;;;;4.15;2.83;;;9.70;99.90;;;;;;5076291;27;20101;-64
2021/05/24 04:41:24;;;;;;;5.45;1.80;;;9.70;99.90;;;;;;5072723;27;20052;-65
2021/05/24 04:43:56;;;;;;;4.70;2.00;;;9.70;99.90;;;;;;5071732;28;20578;-64
2021/05/24 04:46:23;;;;;;;5.05;2.00;;;9.70;99.90;;;;;;5072566;27;20044;-64
2021/05/24 04:48:50;;;;;;;2.55;2.05;;;9.70;99.90;;;;;;5073627;28;20048;-64
2021/05/24 04:51:17;;;;;;;3.97;1.60;;;9.70;99.90;;;;;;5073089;27;20040;-65
2021/05/24 04:53:44;;;;;;;2.83;1.27;;;9.70;99.90;;;;;;5071786;28;20085;-64
2021/05/24 04:56:11;;;;;;;7.07;1.92;;;9.70;99.90;;;;;;5071906;27;20048;-65
2021/05/24 04:58:38;;;;;;;2.33;2.08;;;9.70;99.90;;;;;;5087675;27;20048;-64
2021/05/24 05:01:05;;;;;;;5.15;2.35;;;9.70;99.90;;;;;;5071483;28;20056;-64
2021/05/24 05:03:34;;;;;;;4.80;2.90;;;9.70;99.90;;;;;;5071418;28;20074;-64
2021/05/24 05:06:01;;;;;;;4.55;2.55;;;9.70;99.90;;;;;;5076990;28;20094;-64
2021/05/24 05:08:28;;;;;;;11.15;3.25;;;9.70;99.90;;;;;;5071394;27;20048;-64
2021/05/24 05:10:55;;;;;;;4.88;2.38;;;9.80;99.90;;;;;;5076736;28;20052;-64
2021/05/24 05:13:22;;;;;;;7.00;2.33;;;9.80;99.90;;;;;;5069298;28;20087;-64
2021/05/24 05:15:50;;;;;;;6.65;2.05;;;9.80;99.90;;;;;;5075478;27;20105;-64
2021/05/24 05:18:17;;;;;;;4.75;1.98;;;9.80;99.90;;;;;;5077056;28;20080;-64
2021/05/24 05:20:44;;;;;;;4.22;2.72;;;9.90;99.90;;;;;;5060969;28;20075;-64
2021/05/24 05:23:11;;;;;;;4.32;2.40;;;9.90;99.90;;;;;;5062028;28;20052;-64
2021/05/24 05:25:38;;;;;;;6.50;2.03;;;10.00;99.90;;;;;;5059763;28;20126;-64
2021/05/24 05:28:08;;;;;;;8.02;2.58;;;10.00;99.90;;;;;;5061911;28;20197;-63
2021/05/24 05:30:35;;;;;;;3.15;1.83;;;10.10;99.90;;;;;;5061805;28;20052;-63
2021/05/24 05:33:01;;;;;;;4.38;2.22;;;10.10;99.90;;;;;;5064383;28;20096;-63
2021/05/24 05:35:32;;;;;;;6.35;2.20;;;10.10;99.90;;;;;;5059275;28;20060;-63
2021/05/24 05:37:58;;;;;;;9.30;2.28;;;10.10;99.90;;;;;;5061044;28;20076;-63
2021/05/24 05:40:26;;;;;;;8.40;2.92;;;10.10;99.90;;;;;;5062941;28;20512;-63
2021/05/24 05:42:53;;;;;;;14.38;2.70;;;10.20;99.90;;;;;;5055430;28;20060;-63
2021/05/24 05:45:20;;;;;;;6.18;2.33;;;10.20;99.90;;;;;;5059838;28;20391;-64
2021/05/24 05:47:47;;;;;;;13.65;4.38;;;10.30;99.90;;;;;;5059877;28;20396;-63
2021/05/24 05:50:14;;;;;;;9.77;2.95;;;10.30;99.90;;;;;;5059857;28;20064;-64
2021/05/24 05:52:41;;;;;;;12.70;2.38;;;10.30;99.90;;;;;;5058637;28;22600;-63
2021/05/24 05:55:08;;;;;;;6.40;2.30;;;10.40;99.90;;;;;;5062213;28;20111;-63
2021/05/24 05:57:35;;;;;;;5.20;1.83;;;10.40;99.90;;;;;;5051452;28;20384;-63
2021/05/24 06:00:05;;;;;;;5.97;2.03;;;10.50;99.90;;;;;;5061529;28;20048;-63
2021/05/24 06:02:37;;;;;;;5.93;2.58;;;10.60;99.90;;;;;;5058124;28;20044;-63
2021/05/24 06:05:10;;;;;;;6.43;2.35;;;10.70;99.90;;;;;;5059779;28;20090;-63
2021/05/24 06:07:42;;;;;;;7.05;2.75;;;11.00;99.90;;;;;;1464339;28;10023564;-63
2021/05/24 06:10:11;;;;;;;10.15;3.03;;;11.20;99.90;;;;;;4677248;28;10001930;-63
2021/05/24 06:12:41;;;;;;;11.93;3.58;;;11.20;99.90;;;;;;5019106;28;20046;-63
2021/05/24 06:15:09;;;;;;;4.35;1.85;;;11.20;99.90;;;;;;5020303;28;20107;-63
2021/05/24 06:17:36;;;;;;;8.82;1.92;;;11.20;99.90;;;;;;5009722;28;20058;-63
2021/05/24 06:20:05;;;;;;;3.92;2.00;;;11.20;99.90;;;;;;5019924;28;20073;-63
2021/05/24 06:22:32;;;;;;;4.28;1.60;;;11.20;99.90;;;;;;5016340;28;20050;-63
2021/05/24 06:24:58;;;;;;;4.43;2.20;;;11.20;99.90;;;;;;5023421;28;20060;-63
2021/05/24 06:27:25;;;;;;;6.93;2.45;;;11.30;99.90;;;;;;5019386;28;20041;-63
2021/05/24 06:29:52;;;;;;;6.90;1.92;;;11.30;99.90;;;;;;5022022;28;20452;-63
2021/05/24 06:32:19;;;;;;;9.70;2.40;;;11.20;99.90;;;;;;5017589;28;20095;-63
2021/05/24 06:34:46;;;;;;;4.45;2.35;;;11.20;99.90;;;;;;5020396;28;20104;-64
2021/05/24 06:37:13;;;;;;;9.05;2.53;;;11.10;99.90;;;;;;5018255;28;20045;-64
2021/05/24 06:39:43;;;;;;;3.55;1.90;;;11.10;99.90;;;;;;5016919;28;20065;-63
2021/05/24 06:42:10;;;;;;;5.47;1.90;;;11.10;99.90;;;;;;5015892;28;20582;-63
2021/05/24 06:44:39;;;;;;;3.92;2.08;;;10.90;99.90;;;;;;5018461;28;20057;-63
2021/05/24 06:47:06;;;;;;;4.88;1.77;;;10.90;99.90;;;;;;5017527;28;20438;-63
2021/05/24 06:49:36;;;;;;;8.73;1.98;;;10.80;99.90;;;;;;5016348;28;20111;-63
2021/05/24 06:52:05;;;;;;;3.60;1.98;;;10.70;99.90;;;;;;5013699;28;21488;-63
2021/05/24 06:54:32;;;;;;;4.68;2.05;;;10.70;99.90;;;;;;5019606;28;20097;-63
2021/05/24 06:57:03;;;;;;;3.35;2.03;;;10.80;99.90;;;;;;5016493;28;20479;-63
2021/05/24 06:59:31;;;;;;;8.57;1.92;;;10.90;99.90;;;;;;5016631;28;20050;-63
2021/05/24 07:02:01;;;;;;;5.63;2.10;;;10.90;99.90;;;;;;5017500;28;20134;-63
2021/05/24 07:04:32;;;;;;;12.70;2.47;;;10.90;99.90;;;;;;5019771;28;20041;-63
2021/05/24 07:06:59;;;;;;;7.35;2.33;;;10.80;99.90;;;;;;5012866;28;20049;-63
2021/05/24 07:09:27;;;;;;;5.65;3.15;;;10.90;99.90;;;;;;5017024;28;20711;-63
2021/05/24 07:11:56;;;;;;;4.50;1.73;;;10.90;99.90;;;;;;5019340;28;20041;-63
2021/05/24 07:14:23;;;;;;;8.90;1.83;;;11.00;99.90;;;;;;5017988;28;20038;-63
2021/05/24 07:17:00;;;;;;;3.15;2.25;;;11.00;99.90;;;;;;5011182;28;20045;-63
2021/05/24 07:19:27;;;;;;;2.70;1.30;;;11.10;99.90;;;;;;5018752;28;20111;-63
2021/05/24 07:21:56;;;;;;;3.97;1.60;;;11.00;99.90;;;;;;5015659;28;20287;-63
2021/05/24 07:24:23;;;;;;;1.80;1.27;;;11.00;99.90;;;;;;5017414;28;20041;-63
2021/05/24 07:26:56;;;;;;;6.60;1.42;;;11.00;99.90;;;;;;5016525;28;20061;-63
2021/05/24 07:29:23;;;;;;;4.15;2.20;;;11.00;99.90;;;;;;5022672;28;20052;-63
2021/05/24 07:31:53;;;;;;;6.25;1.63;;;11.00;99.90;;;;;;5020238;28;20119;-63
2021/05/24 07:34:19;;;;;;;3.33;1.88;;;11.00;99.90;;;;;;5013817;28;20060;-63
2021/05/24 07:36:46;;;;;;;1.90;1.65;;;11.10;99.90;;;;;;5015099;28;20049;-63
2021/05/24 07:39:13;;;;;;;3.28;1.42;;;11.20;99.90;;;;;;5019508;28;20045;-63
2021/05/24 07:41:40;;;;;;;4.45;1.50;;;11.20;99.90;;;;;;5018189;28;20053;-63
2021/05/24 07:44:07;;;;;;;2.75;1.77;;;11.30;99.90;;;;;;5019690;28;20068;-63
2021/05/24 07:46:37;;;;;;;2.65;1.20;;;11.30;99.90;;;;;;5019806;28;20056;-63
2021/05/24 07:49:04;;;;;;;4.07;1.70;;;11.20;99.90;;;;;;5015726;28;20140;-64
2021/05/24 07:51:31;;;;;;;5.65;1.08;;;11.20;99.90;;;;;;5015527;28;20403;-63
2021/05/24 07:53:58;;;;;;;3.80;1.42;;;11.20;99.90;;;;;;5016235;28;20056;-63
2021/05/24 07:56:25;;;;;;;3.35;0.93;;;11.20;99.90;;;;;;5017348;28;20055;-64
2021/05/24 07:58:54;;;;;;;5.15;1.77;;;11.20;99.90;;;;;;5016990;28;20400;-63
2021/05/24 08:01:23;;;;;;;7.57;1.77;;;11.40;99.90;;;;;;5015423;28;20069;-63
2021/05/24 08:03:50;;;;;;;3.75;1.15;;;11.40;99.90;;;;;;5019496;28;20408;-63
2021/05/24 08:06:17;;;;;;;4.22;1.50;;;11.50;99.90;;;;;;5016208;28;20130;-63
2021/05/24 08:08:46;;;;;;;3.42;1.23;;;11.50;99.90;;;;;;5014363;28;20049;-63
2021/05/24 08:11:15;;;;;;;5.88;0.93;;;11.60;99.90;;;;;;5014104;28;20041;-63
2021/05/24 08:13:43;;;;;;;3.97;1.40;;;11.70;99.90;;;;;;5018813;28;20042;-63
2021/05/24 08:16:13;;;;;;;4.90;1.45;;;11.80;99.90;;;;;;5017694;28;20045;-63
2021/05/24 08:18:43;;;;;;;3.88;1.40;;;11.80;99.90;;;;;;5018914;28;20465;-63
2021/05/24 08:21:11;;;;;;;6.88;1.40;;;11.80;99.90;;;;;;5017430;28;20049;-63
2021/05/24 08:23:45;;;;;;;7.25;1.67;;;11.80;99.90;;;;;;5011706;28;20046;-63
2021/05/24 08:26:12;;;;;;;;;;;11.90;99.90;;;;;;5016359;28;20053;-63
2021/05/24 08:28:40;;;;;;;5.95;1.63;;;11.90;99.90;;;;;;5017406;28;19925;-63
2021/05/24 08:31:08;;;;;;;2.35;1.00;;;11.90;99.90;;;;;;5010343;28;20049;-63
2021/05/24 08:33:35;;;;;;;4.47;1.88;;;12.00;99.90;;;;;;5019034;28;20041;-63
2021/05/24 08:36:02;;;;;;;2.72;1.58;;;12.20;99.90;;;;;;5014047;28;20484;-63
2021/05/24 08:38:30;;;;;;;1.95;0.90;;;12.20;99.90;;;;;;5021564;28;20069;-63
2021/05/24 08:41:05;;;;;;;4.93;1.13;;;12.10;99.90;;;;;;5015881;28;20045;-63
2021/05/24 08:43:37;;;;;;;1.92;1.20;;;12.10;99.90;;;;;;5017955;28;20100;-63
2021/05/24 08:46:05;;;;;;;4.88;1.92;;;12.20;99.90;;;;;;5019078;28;20107;-64
2021/05/24 08:48:35;;;;;;;2.95;1.02;;;12.20;99.90;;;;;;5017731;28;20107;-63
2021/05/24 08:51:05;;;;;;;2.15;0.82;;;12.30;99.90;;;;;;5013510;28;20059;-64
2021/05/24 08:53:33;;;;;;;2.75;1.10;;;12.30;99.90;;;;;;5017069;28;20049;-63
2021/05/24 08:56:00;;;;;;;2.78;0.85;;;12.40;99.90;;;;;;5019884;28;20452;-63
2021/05/24 08:58:29;;;;;;;4.82;1.50;;;12.40;99.90;;;;;;5017443;28;20472;-63
2021/05/24 09:00:56;;;;;;;3.70;1.25;;;12.60;99.90;;;;;;5019215;28;20143;-63
2021/05/24 09:03:24;;;;;;;1.55;0.98;;;12.80;99.90;;;;;;5017682;28;20447;-63
2021/05/24 09:05:53;;;;;;;5.88;1.85;;;12.90;99.90;;;;;;5020394;28;20073;-63
2021/05/24 09:08:36;;;;;;;4.40;1.40;;;13.10;99.90;;;;;;5012847;28;20049;-63
2021/05/24 09:11:23;;;;;;;3.53;1.05;;;13.20;99.90;;;;;;5019786;28;20353;-64
2021/05/24 09:13:51;;;;;;;3.97;1.58;;;13.00;99.90;;;;;;5024184;28;20116;-63
2021/05/24 09:16:26;;;;;;;5.40;0.98;;;13.00;99.90;;;;;;5018935;28;20126;-63
2021/05/24 09:19:30;;;;;;;4.47;1.20;;;13.00;99.90;;;;;;5024104;28;20054;-63
2021/05/24 09:22:07;;;;;;;3.67;1.05;;;13.10;99.90;;;;;;4999277;28;20081;-63
2021/05/24 09:24:38;;;;;;;1.58;0.98;;;13.10;99.90;;;;;;5017594;28;20131;-63
2021/05/24 09:27:35;;;;;;;;;;;;;;;;;;;;;
2021/05/24 09:30:05;;;;;;;2.05;0.75;;;13.40;99.90;;;;;;5013865;28;20046;-64
2021/05/24 09:32:33;;;;;;;4.15;0.82;;;13.40;99.90;;;;;;5023782;28;20053;-64
2021/05/24 09:35:03;;;;;;;3.00;0.52;;;13.50;99.90;;;;;;5015578;28;20499;-63
2021/05/24 09:37:32;;;;;;;4.13;0.70;;;13.40;99.90;;;;;;5017854;28;20064;-63
2021/05/24 09:40:01;;;;;;;3.50;1.10;;;13.50;99.90;;;;;;5017471;28;20398;-64
2021/05/24 09:42:42;;;;;;;1.00;0.70;;;13.60;99.90;;;;;;5022364;28;20053;-64
2021/05/24 09:45:17;;;;;;;4.85;2.10;;;13.80;99.90;;;;;;5022462;28;20045;-64
2021/05/24 09:47:46;;;;;;;2.10;1.08;;;13.90;99.90;;;;;;5012903;28;20113;-63
2021/05/24 09:50:14;;;;;;;3.58;1.15;;;13.80;99.90;;;;;;5019073;28;20050;-64
2021/05/24 09:52:43;;;;;;;0.70;0.70;;;13.70;99.90;;;;;;5018403;28;20530;-64
2021/05/24 09:55:16;;;;;;;3.40;0.82;;;13.70;99.90;;;;;;5019518;28;20168;-64
2021/05/24 09:57:53;;;;;;;1.13;0.70;;;13.90;99.90;;;;;;5017264;28;20068;-64
2021/05/24 10:00:25;;;;;;;4.72;1.02;;;14.00;99.90;;;;;;5019500;28;20132;-64
2021/05/24 10:02:54;;;;;;;4.25;1.00;;;14.10;99.90;;;;;;5015932;28;20666;-64
2021/05/24 10:05:21;;;;;;;1.00;0.90;;;14.10;99.90;;;;;;5016722;28;20396;-63
2021/05/24 10:07:49;;;;;;;1.30;0.65;;;14.10;99.90;;;;;;5012341;28;20897;-63
2021/05/24 10:10:16;;;;;;;1.42;1.30;;;14.00;99.90;;;;;;5022121;28;20087;-64
2021/05/24 10:12:46;;;;;;;2.25;0.85;;;14.10;99.90;;;;;;5018088;28;20184;-64
2021/05/24 10:15:15;;;;;;;2.53;0.75;;;14.10;99.90;;;;;;5020880;28;20111;-64
2021/05/24 10:17:50;;;;;;;2.03;0.80;;;14.00;99.90;;;;;;5017871;28;20049;-64
2021/05/24 10:20:17;;;;;;;2.25;0.90;;;14.20;99.90;;;;;;5017462;28;20061;-64
2021/05/24 10:22:46;;;;;;;8.68;1.75;;;14.20;99.90;;;;;;5015414;28;20049;-64
2021/05/24 10:25:13;;;;;;;2.00;0.80;;;14.30;99.90;;;;;;5019622;28;20049;-63
2021/05/24 10:27:41;;;;;;;3.35;0.85;;;14.40;99.90;;;;;;5017438;28;20447;-63
2021/05/24 10:30:10;;;;;;;3.67;1.00;;;14.30;99.90;;;;;;5021908;28;20045;-63
2021/05/24 10:32:37;;;;;;;3.03;0.85;;;14.50;99.90;;;;;;5019976;28;20576;-63
2021/05/24 10:35:30;;;;;;;1.30;1.25;;;14.40;99.90;;;;;;5020937;28;20045;-64
2021/05/24 10:37:58;;;;;;;4.13;1.55;;;14.50;99.90;;;;;;5014404;28;20050;-63
2021/05/24 10:40:26;;;;;;;1.70;0.95;;;14.50;99.90;;;;;;5018968;28;20057;-64
2021/05/24 10:43:07;;;;;;;2.45;0.98;;;14.50;99.90;;;;;;5017186;28;20104;-64
2021/05/24 10:45:34;;;;;;;3.75;0.93;;;14.50;99.90;;;;;;5019710;28;20119;-64
2021/05/24 10:48:02;;;;;;;1.65;0.65;;;14.70;99.90;;;;;;5018510;28;20115;-64
2021/05/24 10:50:32;;;;;;;2.58;1.25;;;14.90;99.90;;;;;;5018745;28;20047;-64
2021/05/24 10:53:06;;;;;;;3.08;0.60;;;14.90;99.90;;;;;;5020503;28;20140;-64
2021/05/24 10:55:44;;;;;;;3.08;0.90;;;15.00;99.90;;;;;;5034171;28;20419;-63
2021/05/24 10:58:11;;;;;;;1.45;0.77;;;15.20;99.90;;;;;;5019992;28;20053;-64
2021/05/24 11:00:53;;;;;;;2.17;0.70;;;15.20;99.90;;;;;;5017296;28;20065;-64
2021/05/24 11:03:23;;;;;;;1.85;0.82;;;15.40;99.90;;;;;;5017038;28;20055;-64
2021/05/24 11:06:11;;;;;;;1.60;1.20;;;15.20;99.90;;;;;;5015919;28;20046;-64
2021/05/24 11:08:41;;;;;;;3.70;1.05;;;15.30;99.90;;;;;;5016877;28;20049;-65
2021/05/24 11:11:25;;;;;;;2.15;1.13;;;15.30;99.90;;;;;;5016795;28;20068;-64
2021/05/24 11:14:08;;;;;;;1.50;0.55;;;15.40;99.90;;;;;;5016492;28;20127;-62
2021/05/24 11:16:37;;;;;;;2.80;0.65;;;15.50;99.90;;;;;;5018021;28;20149;-61
2021/05/24 11:19:15;;;;;;;1.02;0.50;;;15.50;99.90;;;;;;5017697;28;20182;-62
2021/05/24 11:21:54;;;;;;;0.82;0.60;;;15.40;99.90;;;;;;5016200;28;20721;-61
2021/05/24 11:24:42;;;;;;;1.15;0.63;;;15.40;99.90;;;;;;5016974;28;20041;-62
2021/05/24 11:27:18;;;;;;;1.35;0.82;;;15.70;99.90;;;;;;5018667;28;20107;-62
2021/05/24 11:29:49;;;;;;;5.88;1.02;;;15.90;99.90;;;;;;5014502;28;20668;-62
2021/05/24 11:32:26;;;;;;;3.60;0.80;;;15.90;99.90;;;;;;5018476;28;20547;-62
2021/05/24 11:34:53;;;;;;;0.93;0.60;;;16.00;99.10;;;;;;5016734;28;20600;-62
2021/05/24 11:37:39;;;;;;;3.03;1.58;;;15.90;98.10;;;;;;5014417;28;20053;-62
2021/05/24 11:40:14;;;;;;;3.03;0.90;;;15.90;98.90;;;;;;5016590;28;20045;-62
2021/05/24 11:42:41;;;;;;;0.63;0.43;;;16.20;98.30;;;;;;5019310;28;20152;-62
2021/05/24 11:45:17;;;;;;;2.03;0.80;;;16.30;97.90;;;;;;5014982;28;20606;-62
2021/05/24 11:47:44;;;;;;;3.60;1.05;;;16.50;97.60;;;;;;5014207;28;20053;-62
2021/05/24 11:50:11;;;;;;;3.47;1.30;;;16.40;98.70;;;;;;5016876;28;20061;-62
2021/05/24 11:52:39;;;;;;;1.73;0.43;;;16.50;97.30;;;;;;5019194;28;20054;-62
2021/05/24 11:55:12;;;;;;;2.42;0.60;;;16.50;96.80;;;;;;5016851;28;20076;-62
2021/05/24 11:57:43;;;;;;;0.88;0.70;;;16.60;96.60;;;;;;5010998;28;20045;-62
2021/05/24 12:00:13;;;;;;;1.08;0.70;;;16.50;97.90;;;;;;5016723;28;20053;-62
2021/05/24 12:02:45;;;;;;;1.90;0.70;;;16.50;97.10;;;;;;5013275;28;20049;-62
2021/05/24 12:05:18;;;;;;;1.10;1.10;;;16.60;95.70;;;;;;5016753;28;20142;-61
2021/05/24 12:07:47;;;;;;;1.13;0.82;;;16.80;94.50;;;;;;5012075;28;20069;-62
2021/05/24 12:10:14;;;;;;;1.52;0.95;;;16.70;97.90;;;;;;5015049;28;20050;-62
2021/05/24 12:12:41;;;;;;;1.85;0.73;;;16.60;96.30;;;;;;5019777;28;20367;-62
2021/05/24 12:15:15;;;;;;;2.38;0.75;;;16.50;97.70;;;;;;5016885;28;20115;-62
2021/05/24 12:17:47;;;;;;;1.75;0.88;;;16.60;96.70;;;;;;5015247;28;20080;-62
2021/05/24 12:20:14;;;;;;;5.60;1.52;;;16.80;96.40;;;;;;5017127;28;20057;-62
2021/05/24 12:22:43;;;;;;;2.17;1.10;;;16.70;95.90;;;;;;5016066;28;20054;-62
2021/05/24 12:25:16;;;;;;;2.67;1.20;;;16.80;96.90;;;;;;5017441;28;20046;-62
2021/05/24 12:27:44;;;;;;;3.25;0.93;;;17.20;97.70;;;;;;5007329;28;20133;-62
2021/05/24 12:30:19;;;;;;;3.15;0.93;;;17.40;95.80;;;;;;5019862;28;20395;-62
2021/05/24 12:32:55;;;;;;;1.48;0.70;;;17.20;94.80;;;;;;5021997;28;20062;-62
2021/05/24 12:35:27;;;;;;;2.60;1.33;;;17.40;93.70;;;;;;5020338;28;20410;-62
2021/05/24 12:38:20;;;;;;;2.25;0.80;;;17.40;94.90;;;;;;5021688;28;20057;-62
2021/05/24 12:40:59;;;;;;;2.38;0.98;;;17.50;95.40;;;;;;5035918;28;20053;-62
2021/05/24 12:43:26;;;;;;;1.88;1.60;;;17.30;93.50;;;;;;5020473;28;20045;-61
2021/05/24 12:45:53;;;;;;;1.60;1.05;;;17.20;94.60;;;;;;5021779;28;20041;-62
2021/05/24 12:48:27;;;;;;;1.23;0.90;;;17.50;94.80;;;;;;5023145;28;20069;-63
2021/05/24 12:50:57;;;;;;;2.63;1.35;;;17.60;96.10;;;;;;5020285;28;20048;-63
2021/05/24 12:53:26;;;;;;;2.13;1.08;;;17.80;95.30;;;;;;5019000;28;20063;-62
2021/05/24 12:56:04;;;;;;;2.38;1.17;;;17.70;95.90;;;;;;5022556;28;20070;-63
2021/05/24 12:58:37;;;;;;;2.17;0.80;;;17.70;95.70;;;;;;5021500;28;20053;-62
2021/05/24 13:01:04;;;;;;;1.30;1.20;;;17.70;95.50;;;;;;5021528;28;20049;-63